createdAt,value
2022-09-18T00:03:24.466Z,13.1
2022-09-18T00:08:24.398Z,13.1
2022-09-18T00:13:24.405Z,13.1
2022-09-18T00:18:24.406Z,13.1
2022-09-18T00:23:24.409Z,13.1
2022-09-18T00:28:24.409Z,13.1
2022-09-18T00:33:24.410Z,13.1
2022-09-18T00:38:24.414Z,13.1
2022-09-18T00:43:24.417Z,13.1
2022-09-18T00:48:24.424Z,13.1
2022-09-18T00:53:24.424Z,13.2
2022-09-18T00:58:24.422Z,13.2
2022-09-18T01:03:24.427Z,13.2
2022-09-18T01:08:24.431Z,13.1
2022-09-18T01:13:24.439Z,13.1
2022-09-18T01:18:24.446Z,13.1
2022-09-18T01:23:24.436Z,13.1
2022-09-18T01:28:24.443Z,13.1
2022-09-18T01:33:24.439Z,13.1
2022-09-18T01:38:24.454Z,13.1
2022-09-18T01:43:24.447Z,13.1
2022-09-18T01:48:24.451Z,13.1
2022-09-18T01:53:24.458Z,13.1
2022-09-18T01:58:24.466Z,13.1
2022-09-18T02:03:24.458Z,13.1
2022-09-18T02:08:24.456Z,13.1
2022-09-18T02:13:24.463Z,13.1
2022-09-18T02:18:24.463Z,13.1
2022-09-18T02:23:24.468Z,13.1
2022-09-18T02:28:24.496Z,13.0
2022-09-18T02:33:24.475Z,13.0
2022-09-18T02:38:24.539Z,13.0
2022-09-18T02:43:24.481Z,13.0
2022-09-18T02:48:24.485Z,12.9
2022-09-18T02:53:24.486Z,12.9
2022-09-18T02:58:24.484Z,12.9
2022-09-18T03:03:24.489Z,13.0
2022-09-18T03:08:24.495Z,13.0
2022-09-18T03:13:24.493Z,13.0
2022-09-18T03:18:24.499Z,13.0
2022-09-18T03:23:24.510Z,13.0
2022-09-18T03:28:24.503Z,13.0
2022-09-18T03:33:24.505Z,13.0
2022-09-18T03:38:24.511Z,13.0
2022-09-18T03:43:24.515Z,13.0
2022-09-18T03:48:24.514Z,13.0
2022-09-18T03:53:24.522Z,13.0
2022-09-18T03:58:24.514Z,13.0
2022-09-18T04:03:24.525Z,13.1
2022-09-18T04:08:24.520Z,13.1
2022-09-18T04:13:24.525Z,13.0
2022-09-18T04:18:24.529Z,13.0
2022-09-18T04:23:24.534Z,13.0
2022-09-18T04:28:24.537Z,13.0
2022-09-18T04:33:24.542Z,13.1
2022-09-18T04:38:24.544Z,13.1
2022-09-18T04:43:24.544Z,13.1
2022-09-18T04:48:24.549Z,13.1
2022-09-18T04:53:24.545Z,13.1
2022-09-18T04:58:24.553Z,13.1
2022-09-18T05:03:24.557Z,13.1
2022-09-18T05:08:24.576Z,13.1
2022-09-18T05:13:24.565Z,13.1
2022-09-18T05:18:24.564Z,13.1
2022-09-18T05:23:24.563Z,13.1
2022-09-18T05:28:24.573Z,13.1
2022-09-18T05:38:24.576Z,13.2
2022-09-18T05:43:24.580Z,13.2
2022-09-18T05:48:24.578Z,13.2
2022-09-18T05:53:24.585Z,13.2
2022-09-18T06:03:24.694Z,13.2
2022-09-18T06:08:24.600Z,13.1
2022-09-18T06:13:24.592Z,13.2
2022-09-18T06:18:24.593Z,13.2
2022-09-18T06:23:24.604Z,13.3
2022-09-18T06:28:24.597Z,13.3
2022-09-18T06:33:24.604Z,13.4
2022-09-18T06:38:24.607Z,13.4
2022-09-18T06:43:24.608Z,13.5
2022-09-18T06:48:24.609Z,13.6
2022-09-18T06:53:24.615Z,13.6
2022-09-18T06:58:24.613Z,13.7
2022-09-18T07:03:24.623Z,13.8
2022-09-18T07:08:24.628Z,13.9
2022-09-18T07:13:24.632Z,14.1
2022-09-18T07:18:24.636Z,14.1
2022-09-18T07:23:24.641Z,14.2
2022-09-18T07:28:24.640Z,14.2
2022-09-18T07:33:24.653Z,14.3
2022-09-18T07:38:24.646Z,14.3
2022-09-18T07:43:24.648Z,14.3
2022-09-18T07:48:24.654Z,14.3
2022-09-18T07:53:24.659Z,14.3
2022-09-18T07:58:24.662Z,14.3
2022-09-18T08:03:24.663Z,14.4
2022-09-18T08:08:24.662Z,14.4
2022-09-18T08:13:24.668Z,14.4
2022-09-18T08:18:24.666Z,14.5
2022-09-18T08:23:24.670Z,14.5
2022-09-18T08:28:24.674Z,14.6
2022-09-18T08:33:24.707Z,14.8
2022-09-18T08:38:24.698Z,15.0
2022-09-18T08:43:24.688Z,15.1
2022-09-18T08:48:24.692Z,15.1
2022-09-18T08:53:24.698Z,15.3
2022-09-18T08:58:24.696Z,15.5
2022-09-18T09:03:24.702Z,15.6
2022-09-18T09:08:24.708Z,15.8
2022-09-18T09:13:24.702Z,15.8
2022-09-18T09:18:24.708Z,15.9
2022-09-18T09:23:24.716Z,16.0
2022-09-18T09:28:24.720Z,16.0
2022-09-18T09:33:24.728Z,15.8
2022-09-18T09:38:24.722Z,15.7
2022-09-18T09:43:24.725Z,15.6
2022-09-18T09:48:24.726Z,15.5
2022-09-18T09:53:24.730Z,15.5
2022-09-18T09:58:24.731Z,15.6
2022-09-18T10:03:24.730Z,15.7
2022-09-18T10:08:24.739Z,15.9
2022-09-18T10:13:24.737Z,16.0
2022-09-18T10:18:24.743Z,16.0
2022-09-18T10:23:25.680Z,15.9
2022-09-18T10:28:24.750Z,15.8
2022-09-18T10:33:24.757Z,15.7
2022-09-18T10:38:24.757Z,15.6
2022-09-18T10:43:24.763Z,15.3
2022-09-18T10:48:24.759Z,15.1
2022-09-18T10:53:24.762Z,14.8
2022-09-18T10:58:24.763Z,14.6
2022-09-18T11:03:24.764Z,14.5
2022-09-18T11:08:24.761Z,14.4
2022-09-18T11:13:24.769Z,14.5
2022-09-18T11:18:24.771Z,14.6
2022-09-18T11:23:24.773Z,14.7
2022-09-18T11:28:24.777Z,14.9
2022-09-18T11:33:24.779Z,15.0
2022-09-18T11:38:24.800Z,15.0
2022-09-18T11:43:24.790Z,15.0
2022-09-18T11:48:24.789Z,15.1
2022-09-18T11:53:24.792Z,15.1
2022-09-18T11:58:24.791Z,15.2
2022-09-18T12:03:24.903Z,15.2
2022-09-18T12:08:23.448Z,15.2
2022-09-18T12:13:23.445Z,15.3
2022-09-18T12:18:23.453Z,15.3
2022-09-18T12:23:23.458Z,15.4
2022-09-18T12:28:23.465Z,15.3
2022-09-18T12:33:23.443Z,15.3
2022-09-18T12:38:23.439Z,15.2
2022-09-18T12:43:24.107Z,15.1
2022-09-18T12:48:24.105Z,15.1
2022-09-18T12:53:24.106Z,15.1
2022-09-18T12:58:24.100Z,15.1
2022-09-18T13:03:24.194Z,15.0
2022-09-18T13:08:24.097Z,15.0
2022-09-18T13:13:24.103Z,15.0
2022-09-18T13:18:24.829Z,15.0
2022-09-18T13:23:24.837Z,14.9
2022-09-18T13:28:24.830Z,14.9
2022-09-18T13:33:24.835Z,14.9
2022-09-18T13:38:24.828Z,14.8
2022-09-18T13:43:24.823Z,14.8
2022-09-18T13:48:24.826Z,14.7
2022-09-18T13:53:24.819Z,14.6
2022-09-18T13:58:24.827Z,14.6
2022-09-18T14:03:27.700Z,14.4
2022-09-18T14:08:24.822Z,14.3
2022-09-18T14:13:24.821Z,14.0
2022-09-18T14:18:24.827Z,13.6
2022-09-18T14:23:24.822Z,13.4
2022-09-18T14:28:24.820Z,13.2
2022-09-18T14:33:24.825Z,13.0
2022-09-18T14:38:24.825Z,12.9
2022-09-18T14:43:24.829Z,12.8
2022-09-18T14:48:24.837Z,12.7
2022-09-18T14:53:24.838Z,12.7
2022-09-18T14:58:24.838Z,12.7
2022-09-18T15:03:24.841Z,12.8
2022-09-18T15:08:26.822Z,12.8
2022-09-18T15:13:24.859Z,12.9
2022-09-18T15:18:24.862Z,13.0
2022-09-18T15:23:24.871Z,13.1
2022-09-18T15:28:24.879Z,13.2
2022-09-18T15:33:24.885Z,13.3
2022-09-18T15:38:24.897Z,13.3
2022-09-18T15:43:24.904Z,13.3
2022-09-18T15:48:24.909Z,13.2
2022-09-18T15:53:24.907Z,13.2
2022-09-18T15:58:24.915Z,13.2
2022-09-18T16:03:24.915Z,13.2
2022-09-18T16:08:24.913Z,13.2
2022-09-18T16:13:24.922Z,13.2
2022-09-18T16:18:24.920Z,13.2
2022-09-18T16:23:24.920Z,13.2
2022-09-18T16:28:24.923Z,13.2
2022-09-18T16:33:24.929Z,13.1
2022-09-18T16:38:24.931Z,13.1
2022-09-18T16:43:24.930Z,13.1
2022-09-18T16:48:24.941Z,13.0
2022-09-18T16:53:24.939Z,13.0
2022-09-18T16:58:24.938Z,12.9
2022-09-18T17:03:24.941Z,12.9
2022-09-18T17:08:24.954Z,12.9
2022-09-18T17:13:24.943Z,12.9
2022-09-18T17:18:24.945Z,12.8
2022-09-18T17:23:24.953Z,12.8
2022-09-18T17:28:24.952Z,12.8
2022-09-18T17:33:24.955Z,12.8
2022-09-18T17:38:24.954Z,12.8
2022-09-18T17:43:24.961Z,12.8
2022-09-18T17:48:24.963Z,12.7
2022-09-18T17:53:24.968Z,12.7
2022-09-18T17:58:24.963Z,12.7
2022-09-18T18:03:24.981Z,12.6
2022-09-18T18:08:24.979Z,12.6
2022-09-18T18:13:24.975Z,12.5
2022-09-18T18:18:24.978Z,12.5
2022-09-18T18:23:24.983Z,12.4
2022-09-18T18:28:24.991Z,12.3
2022-09-18T18:33:24.990Z,12.2
2022-09-18T18:38:24.988Z,12.1
2022-09-18T18:43:24.991Z,12.0
2022-09-18T18:48:24.990Z,11.9
2022-09-18T18:53:24.991Z,11.8
2022-09-18T18:58:24.994Z,11.7
2022-09-18T19:03:24.993Z,11.6
2022-09-18T19:08:24.993Z,11.5
2022-09-18T19:13:25.002Z,11.4
2022-09-18T19:18:25.014Z,11.3
2022-09-18T19:23:25.006Z,11.2
2022-09-18T19:28:25.011Z,11.2
2022-09-18T19:33:25.006Z,11.2
2022-09-18T19:38:25.010Z,11.1
2022-09-18T19:43:25.011Z,11.1
2022-09-18T19:48:25.013Z,11.1
2022-09-18T19:53:25.013Z,11.1
2022-09-18T19:58:25.015Z,11.1
2022-09-18T20:03:25.027Z,11.1
2022-09-18T20:08:25.026Z,11.1
2022-09-18T20:13:25.031Z,11.1
2022-09-18T20:18:25.033Z,11.1
2022-09-18T20:23:25.031Z,11.1
2022-09-18T20:28:25.041Z,11.1
2022-09-18T20:33:25.044Z,11.0
2022-09-18T20:38:25.049Z,11.0
2022-09-18T20:43:25.045Z,11.0
2022-09-18T20:48:25.048Z,11.0
2022-09-18T20:53:25.050Z,11.0
2022-09-18T20:58:25.045Z,10.9
2022-09-18T21:03:25.054Z,10.9
2022-09-18T21:08:25.060Z,10.9
2022-09-18T21:13:25.056Z,10.9
2022-09-18T21:18:25.062Z,10.9
2022-09-18T21:23:25.070Z,10.9
2022-09-18T21:28:25.067Z,10.8
2022-09-18T21:33:25.076Z,10.8
2022-09-18T21:38:25.072Z,10.8
2022-09-18T21:43:25.076Z,10.8
2022-09-18T21:48:25.149Z,10.8
2022-09-18T21:53:25.081Z,10.8
2022-09-18T21:58:25.183Z,10.7
2022-09-18T22:03:25.090Z,10.7
2022-09-18T22:08:25.186Z,10.7
2022-09-18T22:13:25.092Z,10.7
2022-09-18T22:18:25.192Z,10.6
2022-09-18T22:23:25.094Z,10.6
2022-09-18T22:28:25.095Z,10.6
2022-09-18T22:33:25.204Z,10.6
2022-09-18T22:38:25.103Z,10.6
2022-09-18T22:43:25.108Z,10.6
2022-09-18T22:48:25.213Z,10.5
2022-09-18T22:53:25.216Z,10.5
2022-09-18T22:58:25.119Z,10.6
2022-09-18T23:03:25.219Z,10.6
2022-09-18T23:08:25.228Z,10.6
2022-09-18T23:13:25.120Z,10.6
2022-09-18T23:18:25.226Z,10.6
2022-09-18T23:23:25.250Z,10.6
2022-09-18T23:28:25.228Z,10.6
2022-09-18T23:33:25.246Z,10.5
2022-09-18T23:38:25.246Z,10.5
2022-09-18T23:43:25.241Z,10.5
2022-09-18T23:48:25.143Z,10.5
2022-09-18T23:53:25.240Z,10.5
2022-09-18T23:58:25.150Z,10.5
